Time;durP1;ratioP1;P1;durP2;ratioP2;P2;SDS_P1;SDS_P2;PMS_P1;PMS_P2;Temp;Humidity;BMP_temperature;BMP_pressure;BME280_temperature;BME280_humidity;BME280_pressure;Samples;Min_cycle;Max_cycle;Signal;HPM_P1;HPM_P2
2021/05/31 00:01:47;;;;;;;3.03;2.83;;;16.50;99.90;;;;;;5096755;28;20197;-81
2021/05/31 00:04:13;;;;;;;6.00;3.08;;;16.50;99.90;;;;;;5095005;28;20185;-82
2021/05/31 00:06:49;;;;;;;3.67;3.30;;;16.50;99.90;;;;;;5097057;28;20177;-82
2021/05/31 00:09:15;;;;;;;3.10;2.80;;;16.40;99.90;;;;;;5095819;28;20259;-82
2021/05/31 00:11:41;;;;;;;3.38;3.08;;;16.30;99.90;;;;;;5096767;28;20539;-82
2021/05/31 00:14:07;;;;;;;3.65;2.85;;;16.30;99.90;;;;;;5094977;28;20724;-82
2021/05/31 00:16:33;;;;;;;4.60;3.17;;;16.20;99.90;;;;;;5095294;28;20201;-81
2021/05/31 00:18:59;;;;;;;4.18;2.80;;;16.30;99.90;;;;;;5096882;28;20618;-83
2021/05/31 00:21:25;;;;;;;5.00;2.95;;;16.30;99.90;;;;;;5096304;28;20229;-84
2021/05/31 00:23:51;;;;;;;3.75;3.10;;;16.20;99.90;;;;;;5096834;28;20170;-81
2021/05/31 00:26:18;;;;;;;6.63;3.17;;;16.20;99.90;;;;;;5095040;28;20171;-82
2021/05/31 00:28:44;;;;;;;3.00;2.78;;;16.20;99.90;;;;;;5096611;28;20541;-81
2021/05/31 00:31:11;;;;;;;3.55;3.17;;;16.30;99.90;;;;;;5096347;28;20188;-82
2021/05/31 00:33:38;;;;;;;3.47;2.95;;;16.20;99.90;;;;;;5096456;28;20650;-82
2021/05/31 00:36:05;;;;;;;3.60;3.30;;;16.20;99.90;;;;;;5096215;28;20708;-81
2021/05/31 00:38:30;;;;;;;4.85;3.30;;;16.10;99.90;;;;;;5096489;28;20512;-81
2021/05/31 00:40:56;;;;;;;7.38;3.20;;;16.00;99.90;;;;;;5096301;28;20170;-81
2021/05/31 00:43:22;;;;;;;3.03;2.83;;;16.00;99.90;;;;;;5096175;28;20558;-82
2021/05/31 00:45:48;;;;;;;3.17;2.97;;;16.00;99.90;;;;;;5096125;28;20174;-82
2021/05/31 00:48:15;;;;;;;3.15;2.83;;;15.90;99.90;;;;;;5095434;28;20174;-81
2021/05/31 00:50:43;;;;;;;3.15;2.95;;;15.90;99.90;;;;;;5096018;28;20174;-82
2021/05/31 00:53:09;;;;;;;5.30;3.22;;;15.90;99.90;;;;;;5096109;28;20550;-81
2021/05/31 00:55:36;;;;;;;5.07;3.35;;;15.90;99.90;;;;;;5095640;28;20177;-82
2021/05/31 00:58:03;;;;;;;6.35;3.10;;;15.90;99.90;;;;;;5096121;28;20194;-81
2021/05/31 01:00:29;;;;;;;4.13;3.25;;;15.90;99.90;;;;;;5094328;28;20177;-81
2021/05/31 01:02:56;;;;;;;3.00;2.80;;;15.90;99.90;;;;;;5096026;28;20200;-81
2021/05/31 01:05:23;;;;;;;4.60;3.20;;;16.00;99.90;;;;;;5095399;28;20192;-82
2021/05/31 01:07:54;;;;;;;4.60;3.17;;;16.10;99.90;;;;;;5095939;28;20163;-82
2021/05/31 01:10:26;;;;;;;3.63;3.08;;;16.20;99.90;;;;;;5095568;28;20166;-81
2021/05/31 01:13:13;;;;;;;7.82;3.50;;;16.20;99.90;;;;;;5094281;28;20209;-82
2021/05/31 01:15:47;;;;;;;4.80;3.13;;;16.10;99.90;;;;;;5095575;28;20245;-82
2021/05/31 01:18:20;;;;;;;5.55;2.97;;;16.00;99.90;;;;;;5095563;28;20185;-81
2021/05/31 01:21:17;;;;;;;6.22;2.97;;;15.90;99.90;;;;;;5095127;28;20570;-81
2021/05/31 01:23:47;;;;;;;3.38;3.08;;;15.80;99.90;;;;;;5095460;28;20219;-81
2021/05/31 01:26:24;;;;;;;6.68;3.08;;;15.70;99.90;;;;;;5095286;28;20165;-81
2021/05/31 01:28:54;;;;;;;4.85;3.40;;;15.70;99.90;;;;;;5095531;28;20505;-82
2021/05/31 01:31:50;;;;;;;4.07;3.28;;;15.60;99.90;;;;;;5093849;28;20205;-82
2021/05/31 01:34:25;;;;;;;6.85;3.60;;;15.70;99.90;;;;;;5094315;28;20242;-81
2021/05/31 01:36:57;;;;;;;3.83;3.28;;;15.60;99.90;;;;;;5095080;28;20243;-82
2021/05/31 01:39:28;;;;;;;5.55;3.05;;;15.60;99.90;;;;;;5094760;28;20644;-81
2021/05/31 01:41:55;;;;;;;3.97;3.10;;;15.50;99.90;;;;;;5093178;28;20210;-81
2021/05/31 01:44:21;;;;;;;4.63;2.97;;;15.60;99.90;;;;;;5095192;28;20511;-81
2021/05/31 01:46:49;;;;;;;3.08;2.88;;;15.60;99.90;;;;;;5094893;28;20172;-81
2021/05/31 01:49:15;;;;;;;3.33;3.03;;;15.70;99.90;;;;;;5094773;28;20170;-81
2021/05/31 01:51:42;;;;;;;6.28;3.63;;;15.70;99.90;;;;;;5094629;28;20631;-81
2021/05/31 01:54:10;;;;;;;6.75;4.03;;;15.80;99.90;;;;;;5094617;28;20247;-81
2021/05/31 01:56:36;;;;;;;3.40;3.10;;;15.80;99.90;;;;;;5094138;28;20239;-81
2021/05/31 01:59:04;;;;;;;3.63;3.10;;;15.70;99.90;;;;;;5094882;28;20163;-82
2021/05/31 02:01:33;;;;;;;3.05;2.80;;;15.70;99.90;;;;;;5093036;28;20194;-81
2021/05/31 02:04:00;;;;;;;5.20;3.33;;;15.70;99.90;;;;;;5094595;28;20249;-81
2021/05/31 02:06:26;;;;;;;3.58;3.28;;;15.80;99.90;;;;;;5094228;28;20200;-81
2021/05/31 02:08:52;;;;;;;8.93;3.20;;;15.80;99.90;;;;;;5094792;28;20677;-82
2021/05/31 02:11:41;;;;;;;4.57;3.33;;;15.80;99.90;;;;;;5094432;28;20198;-81
2021/05/31 02:14:13;;;;;;;3.22;3.00;;;15.80;99.90;;;;;;5093331;28;20225;-81
2021/05/31 02:16:50;;;;;;;3.58;3.28;;;15.60;99.90;;;;;;5092989;28;20169;-82
2021/05/31 02:19:19;;;;;;;4.25;3.42;;;15.60;99.90;;;;;;5094443;28;20146;-81
2021/05/31 02:21:47;;;;;;;4.93;3.35;;;15.50;99.90;;;;;;5092982;28;20166;-81
2021/05/31 02:24:14;;;;;;;3.83;3.42;;;15.40;99.90;;;;;;5094418;28;20162;-81
2021/05/31 02:26:40;;;;;;;7.63;3.50;;;15.40;99.90;;;;;;5108250;28;20306;-82
2021/05/31 02:29:06;;;;;;;5.38;3.17;;;15.40;99.90;;;;;;5115006;28;20613;-81
2021/05/31 02:31:32;;;;;;;3.53;3.20;;;15.40;99.90;;;;;;5096666;28;20699;-81
2021/05/31 02:33:58;;;;;;;4.18;3.60;;;15.40;99.90;;;;;;5093875;28;20205;-81
2021/05/31 02:36:24;;;;;;;4.30;3.90;;;15.40;99.90;;;;;;5093627;28;20541;-82
2021/05/31 02:38:50;;;;;;;3.85;3.40;;;15.40;99.90;;;;;;5094526;28;20174;-81
2021/05/31 02:41:16;;;;;;;4.97;4.20;;;15.40;99.90;;;;;;5093472;28;20258;-81
2021/05/31 02:43:42;;;;;;;5.28;3.75;;;15.40;99.90;;;;;;5094124;28;20166;-82
2021/05/31 02:46:08;;;;;;;4.22;3.63;;;15.30;99.90;;;;;;5092414;28;20219;-81
2021/05/31 02:48:34;;;;;;;6.70;3.78;;;15.30;99.90;;;;;;5093876;28;20215;-81
2021/05/31 02:51:00;;;;;;;5.05;4.03;;;15.20;99.90;;;;;;5093782;28;20630;-82
2021/05/31 02:53:26;;;;;;;5.38;3.25;;;15.10;99.90;;;;;;5092654;28;20197;-81
2021/05/31 02:55:52;;;;;;;3.72;2.78;;;15.10;99.90;;;;;;5092420;28;20166;-82
2021/05/31 02:58:18;;;;;;;13.30;4.22;;;15.00;99.90;;;;;;5093889;28;20208;-81
2021/05/31 03:00:44;;;;;;;3.70;3.42;;;14.90;99.90;;;;;;5093358;28;20186;-81
2021/05/31 03:03:10;;;;;;;4.57;4.07;;;14.90;99.90;;;;;;5093434;28;20200;-81
2021/05/31 03:05:37;;;;;;;4.90;4.20;;;14.90;99.90;;;;;;5075325;28;20170;-81
2021/05/31 03:08:03;;;;;;;7.55;4.28;;;14.80;99.90;;;;;;5093868;28;20181;-81
2021/05/31 03:10:30;;;;;;;4.63;3.95;;;14.70;99.90;;;;;;5091718;28;20173;-82
2021/05/31 03:12:58;;;;;;;3.97;3.67;;;14.70;99.90;;;;;;5092529;28;20201;-82
2021/05/31 03:15:23;;;;;;;7.38;3.53;;;14.70;99.90;;;;;;5093371;28;20166;-81
2021/05/31 03:17:50;;;;;;;5.55;3.95;;;14.70;99.90;;;;;;5093424;28;20253;-81
2021/05/31 03:20:18;;;;;;;7.85;5.07;;;14.70;99.90;;;;;;5093434;28;20277;-82
2021/05/31 03:22:44;;;;;;;5.18;4.68;;;14.50;99.90;;;;;;5092365;28;20201;-81
2021/05/31 03:25:11;;;;;;;4.78;4.07;;;14.50;99.90;;;;;;5091966;28;20227;-81
2021/05/31 03:27:39;;;;;;;5.97;4.15;;;14.30;99.90;;;;;;5092307;28;20174;-81
2021/05/31 03:30:08;;;;;;;6.25;4.85;;;14.10;99.90;;;;;;5093098;28;20201;-82
2021/05/31 03:32:34;;;;;;;7.82;4.97;;;13.90;99.90;;;;;;5091873;28;20407;-81
2021/05/31 03:34:59;;;;;;;4.93;4.43;;;13.90;99.90;;;;;;5093047;28;20648;-81
2021/05/31 03:37:25;;;;;;;5.00;4.60;;;13.80;99.90;;;;;;5093472;28;20181;-81
2021/05/31 03:39:51;;;;;;;5.55;5.05;;;13.80;99.90;;;;;;5075362;28;20170;-81
2021/05/31 03:42:16;;;;;;;5.25;4.43;;;13.90;99.90;;;;;;5091939;28;20185;-81
2021/05/31 03:44:42;;;;;;;8.50;4.90;;;13.90;99.90;;;;;;5091729;28;20269;-81
2021/05/31 03:47:08;;;;;;;6.57;4.60;;;14.00;99.90;;;;;;5093427;28;20607;-81
2021/05/31 03:49:33;;;;;;;6.45;5.10;;;14.00;99.90;;;;;;5093675;28;20494;-81
2021/05/31 03:51:59;;;;;;;6.78;4.78;;;14.00;99.90;;;;;;5093163;28;20170;-81
2021/05/31 03:54:24;;;;;;;7.05;4.63;;;14.00;99.90;;;;;;5092885;28;20332;-81
2021/05/31 03:56:50;;;;;;;12.70;5.22;;;13.90;99.90;;;;;;5092330;28;20204;-81
2021/05/31 03:59:16;;;;;;;5.85;4.55;;;14.00;99.90;;;;;;5075023;28;20175;-81
2021/05/31 04:01:42;;;;;;;5.32;4.75;;;14.10;99.90;;;;;;5074749;28;20190;-82
2021/05/31 04:04:07;;;;;;;5.90;4.93;;;14.30;99.90;;;;;;5092960;28;20174;-81
2021/05/31 04:11:45;;;;;;;5.10;4.60;;;14.20;99.90;;;;;;5092972;28;20201;-82
2021/05/31 04:14:14;;;;;;;7.95;5.03;;;14.10;99.90;;;;;;5092863;28;20270;-81
2021/05/31 04:16:42;;;;;;;8.15;5.40;;;14.00;99.90;;;;;;5093233;28;20195;-81
2021/05/31 04:19:09;;;;;;;12.57;5.97;;;14.00;99.90;;;;;;5092850;28;20174;-80
2021/05/31 04:21:36;;;;;;;9.75;5.03;;;14.10;99.90;;;;;;5075203;28;20175;-81
2021/05/31 04:24:02;;;;;;;9.10;5.72;;;14.20;99.90;;;;;;5096461;28;20178;-81
2021/05/31 04:26:29;;;;;;;9.38;5.30;;;14.20;99.90;;;;;;5096180;28;20534;-81
2021/05/31 04:28:55;;;;;;;12.40;5.45;;;14.30;99.90;;;;;;5095022;28;20162;-82
2021/05/31 04:31:22;;;;;;;6.93;5.53;;;14.30;99.90;;;;;;5061718;28;20212;-81
2021/05/31 04:33:47;;;;;;;10.70;6.05;;;14.30;99.90;;;;;;5096250;28;20194;-81
2021/05/31 04:36:13;;;;;;;10.77;5.85;;;14.50;99.90;;;;;;5095173;28;20511;-81
2021/05/31 04:38:39;;;;;;;8.88;5.40;;;14.70;99.90;;;;;;5095027;28;20173;-81
2021/05/31 04:41:05;;;;;;;8.57;5.65;;;15.10;99.90;;;;;;5095179;28;20173;-81
2021/05/31 04:43:32;;;;;;;8.55;5.20;;;15.40;99.90;;;;;;5095912;28;20209;-81
2021/05/31 04:45:57;;;;;;;6.85;5.65;;;15.80;99.90;;;;;;5095982;28;20216;-81
2021/05/31 04:48:23;;;;;;;6.65;5.20;;;16.80;99.90;;;;;;5096157;28;20173;-82
2021/05/31 04:50:56;;;;;;;5.22;4.72;;;18.20;99.90;;;;;;5094945;28;20260;-82
2021/05/31 04:53:25;;;;;;;5.28;4.78;;;19.10;99.90;;;;;;5095804;28;20646;-82
2021/05/31 04:55:52;;;;;;;8.35;4.65;;;20.10;99.90;;;;;;5092775;28;20253;-81
2021/05/31 04:58:18;;;;;;;7.55;5.00;;;21.00;99.90;;;;;;5095700;28;20169;-82
2021/05/31 05:00:44;;;;;;;6.32;4.63;;;21.80;99.90;;;;;;5095850;28;20178;-82
2021/05/31 05:03:10;;;;;;;8.15;4.93;;;22.60;99.90;;;;;;5094807;28;20631;-82
2021/05/31 05:05:36;;;;;;;6.93;4.00;;;22.90;99.90;;;;;;5095606;28;20170;-82
2021/05/31 05:08:01;;;;;;;7.20;4.90;;;23.40;99.90;;;;;;5094491;28;20637;-82
2021/05/31 05:10:27;;;;;;;8.95;4.35;;;23.40;99.90;;;;;;5095846;28;20237;-81
2021/05/31 05:12:53;;;;;;;9.27;4.25;;;24.00;99.90;;;;;;5094268;28;20194;-82
2021/05/31 05:15:20;;;;;;;6.60;4.03;;;25.10;99.90;;;;;;5095393;28;20206;-81
2021/05/31 05:17:47;;;;;;;8.93;3.70;;;25.20;99.90;;;;;;5095317;28;20169;-82
2021/05/31 05:20:15;;;;;;;4.47;4.18;;;25.20;99.90;;;;;;5095411;28;20249;-82
2021/05/31 05:22:41;;;;;;;6.88;3.88;;;25.90;99.90;;;;;;5095472;28;20203;-82
2021/05/31 05:25:07;;;;;;;6.75;3.75;;;26.50;99.10;;;;;;5095297;28;20170;-82
2021/05/31 05:27:34;;;;;;;7.28;4.47;;;26.10;98.10;;;;;;5094197;28;20162;-82
2021/05/31 05:29:59;;;;;;;4.47;3.70;;;26.50;98.40;;;;;;5095214;28;20166;-82
2021/05/31 05:32:25;;;;;;;5.70;4.00;;;26.80;96.40;;;;;;5093823;28;20176;-82
2021/05/31 05:34:56;;;;;;;5.15;3.60;;;27.80;95.90;;;;;;5093267;28;20179;-82
2021/05/31 05:37:28;;;;;;;7.13;3.97;;;28.80;94.30;;;;;;5095454;28;20200;-83
2021/05/31 05:47:46;;;;;;;4.20;3.22;;;29.70;90.40;;;;;;5074921;28;20619;-82
2021/05/31 05:50:18;;;;;;;6.65;3.08;;;30.20;91.30;;;;;;5091294;28;20533;-82
2021/05/31 05:52:44;;;;;;;6.57;3.53;;;31.20;90.00;;;;;;5095039;28;20224;-82
2021/05/31 05:55:11;;;;;;;9.23;3.40;;;31.10;84.90;;;;;;5094787;28;20527;-82
2021/05/31 05:57:39;;;;;;;5.90;3.40;;;30.20;88.00;;;;;;5094593;28;20173;-82
2021/05/31 06:00:14;;;;;;;5.40;3.17;;;30.70;89.60;;;;;;5093216;28;20307;-83
2021/05/31 06:02:40;;;;;;;6.57;2.70;;;31.80;84.60;;;;;;5094023;28;20192;-82
2021/05/31 06:05:07;;;;;;;4.28;2.85;;;32.40;82.50;;;;;;5094567;28;20176;-81
2021/05/31 06:07:33;;;;;;;3.03;2.78;;;31.40;81.70;;;;;;5094693;28;20165;-83
2021/05/31 06:10:00;;;;;;;4.60;3.00;;;31.90;80.60;;;;;;5093178;28;20181;-82
2021/05/31 06:12:26;;;;;;;3.45;2.83;;;31.60;81.00;;;;;;5094555;28;20188;-82
2021/05/31 06:14:52;;;;;;;14.02;2.72;;;32.30;80.50;;;;;;5094268;28;20704;-82
2021/05/31 06:17:17;;;;;;;3.17;2.38;;;32.00;81.50;;;;;;5093988;28;20174;-82
2021/05/31 06:19:43;;;;;;;5.65;2.60;;;33.50;79.30;;;;;;5092738;28;20189;-82
2021/05/31 06:22:09;;;;;;;3.95;2.40;;;34.60;76.40;;;;;;5094274;28;20201;-82
2021/05/31 06:24:34;;;;;;;6.75;2.78;;;34.70;72.40;;;;;;5093761;28;20209;-80
2021/05/31 06:27:00;;;;;;;4.00;2.30;;;35.20;74.30;;;;;;5094388;28;20248;-80
2021/05/31 06:29:27;;;;;;;2.65;1.98;;;35.80;73.20;;;;;;5093737;28;20219;-80
2021/05/31 06:31:53;;;;;;;6.32;2.65;;;36.10;68.90;;;;;;5092678;28;20213;-80
2021/05/31 06:34:18;;;;;;;3.05;2.40;;;35.90;70.20;;;;;;5094036;28;20228;-80
2021/05/31 06:36:47;;;;;;;3.45;2.28;;;36.40;67.90;;;;;;5093923;28;20180;-79
2021/05/31 06:39:13;;;;;;;3.58;2.22;;;36.80;70.30;;;;;;5093331;28;20272;-80
2021/05/31 06:41:39;;;;;;;8.18;1.90;;;36.80;69.10;;;;;;5093837;28;20588;-80
2021/05/31 06:44:05;;;;;;;4.70;2.38;;;37.40;65.80;;;;;;5092505;28;20169;-80
2021/05/31 06:46:31;;;;;;;7.22;2.10;;;37.50;63.90;;;;;;5093370;28;20166;-81
2021/05/31 06:48:57;;;;;;;4.53;2.33;;;37.30;64.70;;;;;;5092006;28;20161;-80
2021/05/31 06:51:23;;;;;;;4.53;2.10;;;37.30;64.00;;;;;;5094141;28;20168;-81
2021/05/31 06:53:49;;;;;;;4.95;1.65;;;36.90;63.00;;;;;;5092888;28;20587;-80
2021/05/31 06:56:16;;;;;;;5.53;2.05;;;37.00;62.10;;;;;;5092218;28;20188;-81
2021/05/31 06:58:42;;;;;;;5.13;1.90;;;37.10;62.90;;;;;;5093791;28;20624;-80
2021/05/31 07:01:10;;;;;;;6.85;1.63;;;37.90;65.10;;;;;;5093295;28;20200;-80
2021/05/31 07:03:37;;;;;;;9.68;2.90;;;37.80;60.40;;;;;;5093917;28;20150;-80
2021/05/31 07:06:05;;;;;;;3.15;1.75;;;38.20;60.50;;;;;;5093500;28;20197;-80
2021/05/31 07:08:31;;;;;;;10.10;1.90;;;38.50;61.50;;;;;;5093885;28;20161;-80
2021/05/31 07:10:59;;;;;;;10.65;2.42;;;38.10;59.10;;;;;;5093222;28;20161;-81
2021/05/31 07:13:26;;;;;;;5.00;1.90;;;36.90;60.10;;;;;;5093565;28;20200;-81
2021/05/31 07:15:53;;;;;;;2.85;2.33;;;37.80;60.80;;;;;;5093656;28;20529;-83
2021/05/31 07:18:19;;;;;;;6.88;1.73;;;38.40;58.60;;;;;;5094120;28;20649;-81
2021/05/31 07:20:48;;;;;;;8.75;2.03;;;39.30;60.40;;;;;;5092920;28;20172;-80
2021/05/31 07:23:14;;;;;;;5.28;2.30;;;40.20;56.10;;;;;;5092778;28;20219;-81
2021/05/31 07:25:39;;;;;;;3.83;2.10;;;40.00;58.50;;;;;;5094001;28;20220;-80
2021/05/31 07:28:05;;;;;;;8.23;2.08;;;40.80;58.00;;;;;;5092787;28;20174;-80
2021/05/31 07:30:32;;;;;;;3.90;1.85;;;41.20;56.10;;;;;;5092685;28;20184;-80
2021/05/31 07:32:58;;;;;;;5.00;2.00;;;40.90;56.00;;;;;;5093604;28;20180;-81
2021/05/31 07:35:23;;;;;;;4.10;1.42;;;42.20;56.80;;;;;;5093550;28;20166;-81
2021/05/31 07:37:49;;;;;;;6.57;1.70;;;42.50;52.60;;;;;;5091904;28;20178;-80
2021/05/31 07:40:16;;;;;;;4.32;1.73;;;42.20;53.30;;;;;;5093303;28;20189;-81
2021/05/31 07:42:42;;;;;;;5.65;1.60;;;42.50;52.70;;;;;;5093112;28;20523;-82
2021/05/31 07:45:09;;;;;;;2.28;1.70;;;42.30;52.00;;;;;;5091770;28;20520;-81
2021/05/31 07:47:35;;;;;;;8.18;1.60;;;42.50;52.30;;;;;;5092657;28;20170;-80
2021/05/31 07:50:01;;;;;;;4.70;2.03;;;43.10;50.80;;;;;;5092072;28;20257;-81
2021/05/31 07:52:28;;;;;;;6.15;1.73;;;42.90;50.80;;;;;;5093233;28;20181;-80
2021/05/31 07:54:55;;;;;;;2.65;1.70;;;43.40;51.80;;;;;;5093382;28;20174;-82
2021/05/31 07:57:22;;;;;;;1.55;1.30;;;44.10;50.10;;;;;;5095668;28;20165;-80
2021/05/31 07:59:48;;;;;;;1.20;1.20;;;43.50;49.40;;;;;;5095830;28;20170;-81
2021/05/31 08:02:14;;;;;;;2.65;1.70;;;42.90;48.80;;;;;;5095292;28;20281;-80
2021/05/31 08:04:40;;;;;;;1.48;1.38;;;41.30;49.70;;;;;;5096859;28;20280;-81
2021/05/31 08:07:07;;;;;;;7.93;1.80;;;41.60;52.10;;;;;;5095445;28;20178;-81
2021/05/31 08:09:33;;;;;;;2.10;1.50;;;42.50;50.60;;;;;;5095922;28;20204;-81
2021/05/31 08:11:59;;;;;;;3.20;1.55;;;43.50;50.50;;;;;;5096871;28;20173;-81
2021/05/31 08:14:25;;;;;;;7.60;1.90;;;43.90;50.10;;;;;;5096704;28;20633;-82
2021/05/31 08:16:52;;;;;;;3.55;1.23;;;43.50;48.00;;;;;;5094870;28;20181;-83
2021/05/31 08:19:19;;;;;;;2.97;1.38;;;43.00;48.80;;;;;;5096536;28;20169;-81
2021/05/31 08:21:46;;;;;;;6.85;1.55;;;43.50;48.90;;;;;;5095294;28;20174;-81
2021/05/31 08:24:12;;;;;;;1.90;1.52;;;44.60;47.80;;;;;;5094742;28;20553;-81
2021/05/31 08:26:41;;;;;;;2.17;1.38;;;45.10;48.40;;;;;;5096053;28;20260;-80
2021/05/31 08:29:07;;;;;;;2.00;1.25;;;45.70;48.20;;;;;;5091137;28;20641;-80
2021/05/31 08:31:33;;;;;;;5.15;1.77;;;45.80;47.20;;;;;;5096331;28;20178;-80
2021/05/31 08:33:59;;;;;;;3.30;1.70;;;45.60;46.30;;;;;;5096379;28;20170;-80
2021/05/31 08:36:25;;;;;;;9.73;1.77;;;44.70;47.30;;;;;;5095863;28;20219;-80
2021/05/31 08:38:55;;;;;;;1.75;1.60;;;45.10;48.10;;;;;;5095677;28;20610;-80
2021/05/31 08:41:22;;;;;;;3.15;1.40;;;44.90;45.40;;;;;;5096471;28;20229;-80
2021/05/31 08:43:48;;;;;;;1.52;1.20;;;44.70;46.20;;;;;;5094421;28;20185;-80
2021/05/31 08:46:13;;;;;;;2.13;1.40;;;45.00;47.60;;;;;;5091360;28;20211;-79
2021/05/31 08:48:40;;;;;;;9.88;1.50;;;45.50;46.60;;;;;;5095887;28;20618;-80
2021/05/31 08:51:06;;;;;;;3.60;1.40;;;45.60;45.10;;;;;;5095238;28;20173;-80
2021/05/31 08:53:32;;;;;;;2.13;1.45;;;45.80;45.90;;;;;;5096070;28;20647;-79
2021/05/31 08:55:58;;;;;;;2.70;1.40;;;45.90;45.50;;;;;;5095489;28;20540;-81
2021/05/31 08:58:24;;;;;;;2.25;1.30;;;45.30;44.30;;;;;;5096007;28;20169;-80
2021/05/31 09:00:50;;;;;;;2.30;1.42;;;45.40;46.90;;;;;;5096117;28;20201;-79
2021/05/31 09:03:18;;;;;;;2.47;1.45;;;46.00;43.90;;;;;;5096808;28;20217;-80
2021/05/31 09:05:46;;;;;;;1.30;1.05;;;45.10;43.80;;;;;;5095822;28;20177;-80
2021/05/31 09:08:19;;;;;;;1.73;1.40;;;42.80;46.70;;;;;;5094013;28;20174;-80
2021/05/31 09:10:47;;;;;;;2.28;1.33;;;41.10;48.00;;;;;;5094454;28;20637;-83
2021/05/31 09:13:26;;;;;;;1.50;1.30;;;39.10;49.50;;;;;;5095628;28;20681;-80
2021/05/31 09:16:09;;;;;;;2.05;1.30;;;39.70;49.60;;;;;;5095339;28;20169;-79
2021/05/31 09:18:36;;;;;;;1.67;1.30;;;41.10;48.00;;;;;;5095566;28;20622;-83
2021/05/31 09:21:18;;;;;;;1.75;1.65;;;39.30;48.30;;;;;;5016868;28;20191;-84
2021/05/31 09:23:46;;;;;;;2.30;1.50;;;38.60;49.70;;;;;;5025587;28;20227;-84
2021/05/31 09:26:12;;;;;;;5.15;1.77;;;36.30;50.50;;;;;;5032464;28;20278;-84
2021/05/31 09:28:38;;;;;;;7.35;1.77;;;36.90;52.60;;;;;;5032072;28;20278;-85
2021/05/31 09:31:17;;;;;;;2.05;1.58;;;38.30;49.60;;;;;;5032686;28;20227;-83
2021/05/31 09:33:43;;;;;;;2.03;1.60;;;38.10;51.40;;;;;;5031660;28;20679;-84
2021/05/31 09:36:10;;;;;;;5.18;1.60;;;39.40;50.40;;;;;;5015043;28;20694;-81
2021/05/31 09:38:47;;;;;;;1.65;1.40;;;40.10;48.50;;;;;;5032253;28;20180;-84
2021/05/31 09:41:27;;;;;;;4.63;1.50;;;39.40;48.50;;;;;;5032373;28;20244;-82
2021/05/31 09:44:19;;;;;;;2.45;1.73;;;39.90;49.50;;;;;;5031412;28;20183;-87
2021/05/31 09:46:47;;;;;;;1.55;1.40;;;36.60;51.30;;;;;;5025405;28;20242;-84
2021/05/31 09:49:18;;;;;;;6.10;1.60;;;35.60;52.70;;;;;;5015770;28;20182;-84
2021/05/31 09:52:04;;;;;;;2.83;1.67;;;36.80;52.10;;;;;;5055572;28;20189;-82
2021/05/31 09:54:40;;;;;;;1.98;1.50;;;39.20;50.80;;;;;;5093183;28;20637;-83
2021/05/31 09:57:25;;;;;;;8.15;2.03;;;38.60;49.80;;;;;;5087609;28;20188;-83
2021/05/31 10:00:02;;;;;;;3.72;1.73;;;38.80;49.50;;;;;;5094210;28;20598;-84
2021/05/31 10:10:22;;;;;;;3.53;1.38;;;39.80;50.90;;;;;;5094118;28;20201;-86
2021/05/31 10:12:48;;;;;;;3.22;1.48;;;37.90;50.60;;;;;;5109948;28;20166;-85
2021/05/31 10:15:17;;;;;;;2.20;1.52;;;37.30;53.10;;;;;;5094337;28;20173;-86
2021/05/31 10:17:45;;;;;;;5.72;1.42;;;36.40;54.10;;;;;;5092909;28;20174;-85
2021/05/31 10:20:11;;;;;;;3.03;1.80;;;37.80;54.10;;;;;;5093080;28;20166;-86
2021/05/31 10:22:36;;;;;;;4.75;1.80;;;37.70;52.80;;;;;;5092969;28;20170;-85
2021/05/31 10:25:06;;;;;;;3.85;1.65;;;38.60;52.40;;;;;;5093841;28;20195;-85
2021/05/31 10:27:34;;;;;;;3.50;1.65;;;38.30;51.00;;;;;;5093947;28;20169;-85
2021/05/31 10:30:01;;;;;;;3.03;1.50;;;36.20;52.50;;;;;;5093517;28;20186;-84
2021/05/31 10:32:27;;;;;;;3.20;1.58;;;36.80;55.60;;;;;;5094423;28;20169;-85
2021/05/31 10:34:54;;;;;;;1.83;1.52;;;36.40;52.00;;;;;;5093827;28;20303;-85
2021/05/31 10:37:31;;;;;;;2.40;1.60;;;33.90;54.40;;;;;;5094043;28;20185;-83
2021/05/31 10:40:17;;;;;;;2.65;1.80;;;35.30;55.30;;;;;;5094096;28;20211;-84
2021/05/31 10:42:47;;;;;;;5.03;1.63;;;37.30;53.10;;;;;;5094221;28;20279;-82
2021/05/31 10:45:23;;;;;;;3.03;1.45;;;35.50;54.20;;;;;;5093427;28;20222;-84
2021/05/31 10:48:05;;;;;;;6.25;1.90;;;36.10;52.30;;;;;;5093500;28;20201;-85
2021/05/31 10:50:46;;;;;;;2.22;1.50;;;36.20;53.40;;;;;;5093866;28;20158;-84
2021/05/31 10:53:17;;;;;;;5.65;1.75;;;36.70;54.50;;;;;;5093992;28;20245;-84
2021/05/31 10:55:55;;;;;;;2.97;2.08;;;35.30;53.80;;;;;;5093784;28;20174;-84
2021/05/31 10:58:24;;;;;;;2.20;1.70;;;37.00;53.80;;;;;;5093351;28;20181;-84
2021/05/31 11:00:53;;;;;;;3.85;1.52;;;36.30;52.80;;;;;;5093638;28;20185;-83
2021/05/31 11:03:19;;;;;;;2.20;1.63;;;36.60;54.40;;;;;;5092136;28;20181;-84
2021/05/31 11:05:45;;;;;;;2.65;1.67;;;35.80;52.70;;;;;;5093548;28;20190;-82
2021/05/31 11:08:10;;;;;;;2.92;1.80;;;33.60;54.80;;;;;;5093377;28;20648;-83
2021/05/31 11:10:37;;;;;;;2.60;1.85;;;35.80;53.60;;;;;;5092141;28;20672;-83
2021/05/31 11:13:16;;;;;;;4.07;1.70;;;35.40;54.30;;;;;;5093416;28;20188;-83
2021/05/31 11:15:43;;;;;;;2.88;1.65;;;35.60;54.20;;;;;;5093786;28;20161;-84
2021/05/31 11:18:20;;;;;;;6.38;1.75;;;33.10;55.90;;;;;;5093268;28;20177;-84
2021/05/31 11:20:46;;;;;;;2.90;1.67;;;34.80;57.30;;;;;;5093408;28;20192;-84
2021/05/31 11:23:11;;;;;;;8.93;1.98;;;35.30;55.80;;;;;;5085744;28;20221;-80
2021/05/31 11:25:37;;;;;;;1.95;1.80;;;34.70;55.20;;;;;;5089047;28;20181;-82
2021/05/31 11:28:04;;;;;;;6.28;1.85;;;35.90;54.30;;;;;;5092975;28;20180;-80
2021/05/31 11:30:33;;;;;;;3.20;1.90;;;36.90;53.10;;;;;;5092326;28;20199;-80
2021/05/31 11:33:03;;;;;;;3.17;2.20;;;37.50;52.20;;;;;;5097114;28;20217;-82
2021/05/31 11:35:30;;;;;;;1.95;1.80;;;36.60;53.40;;;;;;5097455;28;20169;-84
2021/05/31 11:37:56;;;;;;;2.60;2.13;;;35.80;53.90;;;;;;5097090;28;20235;-81
2021/05/31 11:40:37;;;;;;;2.80;2.20;;;35.10;55.50;;;;;;5096705;28;20177;-82
2021/05/31 11:43:05;;;;;;;5.72;2.30;;;35.60;54.50;;;;;;5088353;28;20177;-82
2021/05/31 11:45:37;;;;;;;3.28;2.08;;;36.10;53.80;;;;;;5096586;28;20169;-82
2021/05/31 11:48:10;;;;;;;3.85;1.88;;;36.60;54.40;;;;;;5096706;28;20162;-82
2021/05/31 11:50:39;;;;;;;4.72;1.95;;;35.70;55.40;;;;;;5096969;28;20693;-82
2021/05/31 11:53:07;;;;;;;4.60;2.47;;;36.10;53.70;;;;;;5094805;28;20582;-82
2021/05/31 11:55:32;;;;;;;6.03;2.30;;;35.10;55.20;;;;;;5095787;28;20165;-82
2021/05/31 11:57:58;;;;;;;2.75;2.50;;;32.50;57.20;;;;;;5096867;28;20177;-82
2021/05/31 12:00:30;;;;;;;3.90;2.42;;;31.00;59.70;;;;;;5096493;28;20242;-81
2021/05/31 12:02:56;;;;;;;6.78;2.47;;;30.30;61.90;;;;;;5094890;28;20603;-81
2021/05/31 12:05:38;;;;;;;3.58;2.33;;;31.70;59.30;;;;;;5096633;28;20185;-81
2021/05/31 12:08:10;;;;;;;6.05;2.55;;;32.50;59.00;;;;;;5096959;28;20165;-81
2021/05/31 12:10:41;;;;;;;7.68;2.92;;;33.40;58.90;;;;;;5097083;28;20228;-80
2021/05/31 12:13:07;;;;;;;6.38;2.80;;;32.00;58.60;;;;;;5096660;28;20174;-81
2021/05/31 12:15:34;;;;;;;3.17;2.72;;;30.60;62.20;;;;;;5095529;28;20614;-80
2021/05/31 12:18:14;;;;;;;5.28;2.95;;;30.90;63.60;;;;;;5095323;28;20635;-81
2021/05/31 12:20:41;;;;;;;3.42;2.80;;;29.20;63.30;;;;;;5096921;28;20170;-80
2021/05/31 12:23:18;;;;;;;4.30;2.40;;;27.50;65.70;;;;;;5094906;28;20198;-80
2021/05/31 12:25:43;;;;;;;3.58;3.10;;;27.20;67.70;;;;;;5087010;28;20669;-82
2021/05/31 12:28:09;;;;;;;3.85;2.50;;;26.30;68.30;;;;;;5096534;28;20174;-81
2021/05/31 12:30:35;;;;;;;6.28;3.00;;;26.70;70.10;;;;;;5084939;28;20204;-83
2021/05/31 12:33:10;;;;;;;4.70;2.20;;;26.80;67.90;;;;;;5094252;28;20566;-82
2021/05/31 12:35:36;;;;;;;4.85;2.38;;;27.00;70.10;;;;;;5082438;28;20165;-81
2021/05/31 12:38:01;;;;;;;3.78;2.72;;;27.10;67.70;;;;;;5094615;28;20181;-82
2021/05/31 12:40:28;;;;;;;3.38;2.38;;;26.60;69.00;;;;;;5096083;28;20165;-84
2021/05/31 12:42:54;;;;;;;9.40;3.03;;;26.40;70.50;;;;;;5093514;28;20166;-83
2021/05/31 12:45:20;;;;;;;3.30;2.53;;;25.70;70.90;;;;;;5095823;28;20641;-84
2021/05/31 12:47:49;;;;;;;5.70;3.58;;;26.10;71.50;;;;;;5093007;28;20178;-84
2021/05/31 12:50:28;;;;;;;4.88;2.70;;;26.10;70.50;;;;;;5106759;28;20545;-84
2021/05/31 12:52:54;;;;;;;5.95;2.45;;;26.30;71.50;;;;;;5095769;28;20174;-84
2021/05/31 12:55:30;;;;;;;2.78;2.55;;;26.20;70.50;;;;;;5096020;28;20166;-83
2021/05/31 12:57:56;;;;;;;9.75;2.60;;;26.20;68.90;;;;;;5096128;28;20146;-83
2021/05/31 13:00:29;;;;;;;5.72;2.75;;;26.00;71.30;;;;;;5095806;28;20174;-83
2021/05/31 13:03:03;;;;;;;4.07;2.42;;;26.20;71.10;;;;;;5096909;28;20217;-84
2021/05/31 13:05:34;;;;;;;5.38;2.60;;;26.20;70.80;;;;;;5095376;28;20174;-83
2021/05/31 13:08:03;;;;;;;3.00;2.50;;;26.50;70.50;;;;;;5094735;28;20158;-82
2021/05/31 13:10:32;;;;;;;3.75;2.35;;;26.00;69.30;;;;;;5095672;28;20166;-83
2021/05/31 13:13:01;;;;;;;3.15;2.00;;;25.70;70.70;;;;;;5095516;28;20622;-83